Time;durP1;ratioP1;P1;durP2;ratioP2;P2;SDS_P1;SDS_P2;PMS_P1;PMS_P2;Temp;Humidity;BMP_temperature;BMP_pressure;BME280_temperature;BME280_humidity;BME280_pressure;Samples;Min_cycle;Max_cycle;Signal;HPM_P1;HPM_P2
2022/05/05 00:00:00;;;;;;;3.10;2.78;;;12.20;99.90;;;;;;7376205;19;20305;-73
2022/05/05 00:02:26;;;;;;;4.17;3.30;;;12.20;99.90;;;;;;7374004;19;20374;-74
2022/05/05 00:04:51;;;;;;;3.95;3.53;;;12.00;99.90;;;;;;7370967;19;20320;-73
2022/05/05 00:07:17;;;;;;;4.03;3.20;;;11.90;99.90;;;;;;7384087;19;20337;-75
2022/05/05 00:09:42;;;;;;;3.38;2.80;;;11.80;99.90;;;;;;7381837;19;20336;-72
2022/05/05 00:14:53;;;;;;;4.25;3.80;;;11.70;99.90;;;;;;7357427;19;20427;-73
2022/05/05 00:17:19;;;;;;;3.10;2.80;;;11.60;99.90;;;;;;7382855;19;20321;-73
2022/05/05 00:19:44;;;;;;;3.47;3.03;;;11.60;99.90;;;;;;7383231;19;20356;-74
2022/05/05 00:22:13;;;;;;;4.20;3.80;;;11.60;99.90;;;;;;7381366;19;21465;-73
2022/05/05 00:24:39;;;;;;;3.00;2.70;;;11.60;99.90;;;;;;7381392;19;20316;-75
2022/05/05 00:27:06;;;;;;;4.28;2.75;;;11.60;99.90;;;;;;7381070;19;20329;-72
2022/05/05 00:29:31;;;;;;;3.87;3.47;;;11.60;99.90;;;;;;7381877;19;20365;-74
2022/05/05 00:31:57;;;;;;;4.15;3.03;;;11.60;99.90;;;;;;7383910;19;20322;-74
2022/05/05 00:34:23;;;;;;;3.33;3.03;;;11.60;99.90;;;;;;7378600;19;20358;-74
2022/05/05 00:36:49;;;;;;;3.70;3.40;;;11.60;99.90;;;;;;7380360;19;20888;-74
2022/05/05 00:39:15;;;;;;;3.37;2.97;;;11.50;99.90;;;;;;7382900;19;20317;-73
2022/05/05 00:41:44;;;;;;;5.75;3.22;;;11.50;99.90;;;;;;7381143;19;20708;-73
2022/05/05 00:44:10;;;;;;;3.10;2.83;;;11.50;99.90;;;;;;7380595;19;20356;-74
2022/05/05 00:46:36;;;;;;;4.43;3.90;;;11.50;99.90;;;;;;7382669;19;20344;-73
2022/05/05 00:49:01;;;;;;;4.37;3.20;;;11.40;99.90;;;;;;7382150;19;20360;-73
2022/05/05 00:51:27;;;;;;;3.22;2.92;;;11.30;99.90;;;;;;7379745;19;20352;-73
2022/05/05 00:53:54;;;;;;;3.30;3.00;;;11.40;99.90;;;;;;7379247;19;20354;-73
2022/05/05 00:56:20;;;;;;;3.90;3.15;;;11.40;99.90;;;;;;7378265;19;20912;-73
2022/05/05 00:58:46;;;;;;;3.38;3.00;;;11.50;99.90;;;;;;7383764;19;21223;-73
2022/05/05 01:01:14;;;;;;;3.17;2.88;;;11.50;99.90;;;;;;7378779;19;20367;-73
2022/05/05 01:03:39;;;;;;;2.97;2.67;;;11.50;99.90;;;;;;7379383;19;20364;-74
2022/05/05 01:06:08;;;;;;;3.00;2.70;;;11.60;99.90;;;;;;7376269;19;20332;-73
2022/05/05 01:08:34;;;;;;;3.22;2.90;;;11.70;99.90;;;;;;7383385;19;20362;-74
2022/05/05 01:11:00;;;;;;;3.22;2.90;;;11.60;99.90;;;;;;7379349;19;20307;-73
2022/05/05 01:13:27;;;;;;;2.85;2.63;;;11.50;99.90;;;;;;7382833;19;20409;-76
2022/05/05 01:15:53;;;;;;;2.70;2.50;;;11.60;99.90;;;;;;7380542;19;20293;-73
2022/05/05 01:18:18;;;;;;;3.10;2.80;;;11.60;99.90;;;;;;7382666;19;20454;-74
2022/05/05 01:20:45;;;;;;;3.70;2.80;;;11.70;99.90;;;;;;7378867;19;20289;-74
2022/05/05 01:23:12;;;;;;;2.90;2.70;;;11.80;99.90;;;;;;7381467;19;20329;-73
2022/05/05 01:28:21;;;;;;;2.95;2.75;;;11.80;99.90;;;;;;7381027;19;20333;-73
2022/05/05 01:30:48;;;;;;;3.27;2.90;;;11.80;99.90;;;;;;7379025;19;20327;-74
2022/05/05 01:33:15;;;;;;;3.33;3.03;;;11.80;99.90;;;;;;7378898;19;20356;-73
2022/05/05 01:35:40;;;;;;;3.15;2.85;;;11.80;99.90;;;;;;7378051;19;20333;-74
2022/05/05 01:38:08;;;;;;;3.30;3.00;;;11.80;99.90;;;;;;7382367;19;20871;-73
2022/05/05 01:40:35;;;;;;;3.30;3.00;;;11.80;99.90;;;;;;7379732;19;20381;-73
2022/05/05 01:43:02;;;;;;;2.97;2.67;;;11.80;99.90;;;;;;7379018;19;20352;-73
2022/05/05 01:45:28;;;;;;;3.70;3.10;;;11.80;99.90;;;;;;7379038;19;20313;-73
2022/05/05 01:47:54;;;;;;;4.78;3.00;;;11.80;99.90;;;;;;7379731;19;20325;-73
2022/05/05 01:50:20;;;;;;;3.55;2.95;;;11.70;99.90;;;;;;7377183;19;20339;-76
2022/05/05 01:52:47;;;;;;;3.33;2.70;;;11.70;99.90;;;;;;7380570;19;20313;-77
2022/05/05 01:55:12;;;;;;;3.83;2.80;;;11.70;99.90;;;;;;7378013;19;20352;-74
2022/05/05 01:57:38;;;;;;;3.03;2.83;;;11.70;99.90;;;;;;7380107;19;20333;-74
2022/05/05 02:00:04;;;;;;;3.47;2.92;;;11.60;99.90;;;;;;7378120;19;20387;-74
2022/05/05 02:02:40;;;;;;;2.80;2.60;;;11.60;99.90;;;;;;7378730;19;20377;-74
2022/05/05 02:05:06;;;;;;;3.42;3.13;;;11.60;99.90;;;;;;7374365;19;20334;-73
2022/05/05 02:07:32;;;;;;;3.33;2.92;;;11.60;99.90;;;;;;7377356;19;20317;-73
2022/05/05 02:10:01;;;;;;;3.20;2.90;;;11.50;99.90;;;;;;7373579;19;20861;-73
2022/05/05 02:12:30;;;;;;;3.40;3.10;;;11.60;99.90;;;;;;7380317;19;20340;-73
2022/05/05 02:14:56;;;;;;;4.20;2.70;;;11.50;99.90;;;;;;7377146;19;20309;-73
2022/05/05 02:17:21;;;;;;;3.15;2.85;;;11.50;99.90;;;;;;7382278;19;20345;-73
2022/05/05 02:19:47;;;;;;;3.90;2.93;;;11.50;99.90;;;;;;7373176;19;20386;-74
2022/05/05 02:22:14;;;;;;;3.88;3.13;;;11.50;99.90;;;;;;7377202;19;20321;-73
2022/05/05 02:24:39;;;;;;;3.33;2.78;;;11.50;99.90;;;;;;7376315;19;20337;-74
2022/05/05 02:27:05;;;;;;;3.13;2.83;;;11.50;99.90;;;;;;7374612;19;20456;-72
2022/05/05 02:29:31;;;;;;;3.53;2.60;;;11.50;99.90;;;;;;7378128;19;20313;-74
2022/05/05 02:31:56;;;;;;;3.45;3.15;;;11.50;99.90;;;;;;7374954;19;20332;-75
2022/05/05 02:34:22;;;;;;;3.47;2.97;;;11.50;99.90;;;;;;7375755;19;20374;-73
2022/05/05 02:39:32;;;;;;;3.10;2.90;;;11.50;99.90;;;;;;7276115;19;2004402;-73
2022/05/05 02:41:58;;;;;;;3.58;3.28;;;11.50;99.90;;;;;;7377961;19;20335;-73
2022/05/05 02:44:24;;;;;;;4.00;3.23;;;11.50;99.90;;;;;;7375534;19;20400;-75
2022/05/05 02:46:49;;;;;;;3.92;2.75;;;11.40;99.90;;;;;;7378538;19;20658;-73
2022/05/05 02:49:15;;;;;;;3.20;2.90;;;11.40;99.90;;;;;;7379061;19;20371;-73
2022/05/05 02:51:40;;;;;;;3.38;3.08;;;11.40;99.90;;;;;;7376827;19;20368;-73
2022/05/05 02:56:58;;;;;;;3.58;3.28;;;11.40;99.90;;;;;;7275857;19;2004380;-74
2022/05/05 02:59:23;;;;;;;3.10;2.90;;;11.40;99.90;;;;;;7381077;19;22879;-81
2022/05/05 03:01:49;;;;;;;3.10;2.87;;;11.50;99.90;;;;;;7374536;19;20312;-75
2022/05/05 03:04:14;;;;;;;4.22;3.67;;;11.60;99.90;;;;;;7372845;19;20365;-74
2022/05/05 03:06:40;;;;;;;3.17;2.83;;;11.60;99.90;;;;;;7374610;19;20340;-75
2022/05/05 03:09:06;;;;;;;3.40;2.83;;;11.60;99.90;;;;;;7377056;19;20354;-75
2022/05/05 03:11:32;;;;;;;3.17;2.90;;;11.60;99.90;;;;;;7372712;19;20305;-77
2022/05/05 03:13:58;;;;;;;3.27;2.97;;;11.70;99.90;;;;;;7374032;19;20399;-75
2022/05/05 03:16:23;;;;;;;4.13;3.47;;;11.70;99.90;;;;;;7371576;19;20395;-75
2022/05/05 03:18:49;;;;;;;4.30;3.33;;;11.80;99.90;;;;;;7372385;19;20814;-75
2022/05/05 03:21:14;;;;;;;3.85;3.45;;;11.80;99.90;;;;;;7368342;19;20355;-75
2022/05/05 03:23:40;;;;;;;4.27;3.87;;;11.80;99.90;;;;;;7373127;19;20344;-76
2022/05/05 03:26:06;;;;;;;4.00;3.60;;;11.90;99.90;;;;;;7347238;19;20353;-74
2022/05/05 03:28:31;;;;;;;4.33;3.93;;;12.00;99.90;;;;;;7372848;19;20557;-76
2022/05/05 03:30:57;;;;;;;5.07;4.57;;;12.00;99.90;;;;;;7366947;19;21079;-75
2022/05/05 03:33:22;;;;;;;4.90;4.43;;;12.00;99.90;;;;;;7375757;19;20375;-75
2022/05/05 03:35:48;;;;;;;4.93;4.43;;;12.00;99.90;;;;;;7373305;19;20312;-74
2022/05/05 03:38:13;;;;;;;5.50;4.65;;;12.00;99.90;;;;;;7375147;19;20362;-74
2022/05/05 03:40:41;;;;;;;5.40;4.75;;;11.90;99.90;;;;;;7380960;19;20341;-74
2022/05/05 03:43:06;;;;;;;4.80;4.40;;;11.90;99.90;;;;;;7378156;19;20340;-74
2022/05/05 03:45:32;;;;;;;3.75;3.45;;;11.90;99.90;;;;;;7378258;19;21220;-73
2022/05/05 03:47:58;;;;;;;4.97;4.47;;;11.90;99.90;;;;;;7379772;19;20328;-74
2022/05/05 03:50:23;;;;;;;5.10;4.50;;;11.90;99.90;;;;;;7342859;19;20739;-73
2022/05/05 03:52:49;;;;;;;5.27;4.77;;;11.90;99.90;;;;;;7380416;19;20308;-73
2022/05/05 03:55:14;;;;;;;5.53;4.97;;;11.90;99.90;;;;;;7380159;19;20998;-74
2022/05/05 03:57:40;;;;;;;4.97;4.57;;;11.90;99.90;;;;;;7381449;19;20324;-74
2022/05/05 04:00:06;;;;;;;6.77;5.33;;;11.90;99.90;;;;;;7378319;19;20357;-73
2022/05/05 04:02:37;;;;;;;5.90;5.28;;;11.90;99.90;;;;;;7379734;19;20389;-74
2022/05/05 04:05:03;;;;;;;6.40;4.87;;;11.90;99.90;;;;;;7381211;19;20324;-73
2022/05/05 04:07:29;;;;;;;5.40;4.90;;;11.90;99.90;;;;;;7380907;19;20888;-74
2022/05/05 04:09:54;;;;;;;5.57;5.00;;;11.90;99.90;;;;;;7379245;19;20325;-74
2022/05/05 04:12:20;;;;;;;5.55;5.05;;;11.90;99.90;;;;;;7380469;19;20336;-73
2022/05/05 04:14:47;;;;;;;6.18;5.57;;;11.90;99.90;;;;;;7379332;19;20308;-75
2022/05/05 04:17:12;;;;;;;5.75;5.20;;;11.90;99.90;;;;;;7380586;19;20666;-74
2022/05/05 04:19:39;;;;;;;6.33;5.73;;;11.80;99.90;;;;;;7382081;19;20353;-74
2022/05/05 04:22:05;;;;;;;6.57;5.90;;;11.80;99.90;;;;;;7380684;19;20363;-74
2022/05/05 04:24:31;;;;;;;6.82;6.18;;;11.70;99.90;;;;;;7377286;19;20947;-74
2022/05/05 04:26:56;;;;;;;6.60;5.28;;;11.70;99.90;;;;;;7380558;19;20317;-74
2022/05/05 04:29:22;;;;;;;7.20;6.50;;;11.70;99.90;;;;;;7383269;19;20725;-73
2022/05/05 04:31:48;;;;;;;7.63;6.90;;;11.70;99.90;;;;;;7384433;19;20337;-74
2022/05/05 04:34:13;;;;;;;6.57;5.97;;;11.50;99.90;;;;;;7379019;19;20889;-75
2022/05/05 04:36:39;;;;;;;6.70;6.10;;;11.50;99.90;;;;;;7379237;19;20340;-74
2022/05/05 04:39:05;;;;;;;6.75;6.15;;;11.50;99.90;;;;;;7378486;19;21200;-76
2022/05/05 04:41:30;;;;;;;7.25;6.47;;;11.50;99.90;;;;;;7376994;19;20340;-76
2022/05/05 04:43:56;;;;;;;6.70;6.07;;;11.50;99.90;;;;;;7379095;19;20351;-75
2022/05/05 04:46:22;;;;;;;6.93;6.23;;;11.60;99.90;;;;;;7374308;19;20329;-75
2022/05/05 04:48:48;;;;;;;6.43;5.83;;;11.60;99.90;;;;;;7377555;19;20712;-75
2022/05/05 04:51:14;;;;;;;7.15;6.18;;;11.60;99.90;;;;;;7362655;19;20368;-76
2022/05/05 04:53:40;;;;;;;6.88;6.28;;;11.70;99.90;;;;;;7376102;19;21073;-76
2022/05/05 04:56:06;;;;;;;7.75;7.03;;;11.70;99.90;;;;;;7375641;19;20335;-75
2022/05/05 04:58:33;;;;;;;6.90;6.20;;;11.60;99.90;;;;;;7380875;19;20345;-74
2022/05/05 05:01:00;;;;;;;7.13;6.45;;;11.60;99.90;;;;;;7373532;19;20369;-79
2022/05/05 05:03:39;;;;;;;6.97;6.38;;;11.70;99.90;;;;;;7381572;19;20339;-78
2022/05/05 05:06:06;;;;;;;6.50;5.90;;;11.70;99.90;;;;;;7276892;19;2004591;-74
2022/05/05 05:08:33;;;;;;;6.40;5.80;;;11.70;99.90;;;;;;7380218;19;20402;-75
2022/05/05 05:10:58;;;;;;;7.10;6.40;;;11.70;99.90;;;;;;7369897;19;20356;-74
2022/05/05 05:13:24;;;;;;;8.00;7.03;;;11.70;99.90;;;;;;7376177;19;20401;-76
2022/05/05 05:15:50;;;;;;;6.85;6.25;;;11.70;99.90;;;;;;7380291;19;20317;-75
2022/05/05 05:18:15;;;;;;;7.53;6.10;;;11.70;99.90;;;;;;7377561;19;20914;-76
2022/05/05 05:20:41;;;;;;;7.40;6.68;;;11.70;99.90;;;;;;7379673;19;21081;-75
2022/05/05 05:23:06;;;;;;;7.20;6.50;;;11.70;99.90;;;;;;7372028;19;20378;-74
2022/05/05 05:25:32;;;;;;;7.10;6.50;;;11.80;99.90;;;;;;7376180;19;20684;-75
2022/05/05 05:27:58;;;;;;;7.63;5.97;;;11.90;99.90;;;;;;7376524;19;20331;-74
2022/05/05 05:30:24;;;;;;;6.65;6.03;;;11.80;99.90;;;;;;7375987;19;20325;-75
2022/05/05 05:32:49;;;;;;;6.80;6.20;;;11.90;99.90;;;;;;7376541;19;20309;-75
2022/05/05 05:35:15;;;;;;;7.70;6.90;;;12.00;99.90;;;;;;7377305;19;20356;-76
2022/05/05 05:37:40;;;;;;;7.17;6.47;;;12.10;99.90;;;;;;7375473;19;20349;-74
2022/05/05 05:40:06;;;;;;;7.30;6.60;;;12.10;99.90;;;;;;7376001;19;21030;-75
2022/05/05 05:42:32;;;;;;;6.30;5.68;;;12.10;99.90;;;;;;7378485;19;20355;-76
2022/05/05 05:44:57;;;;;;;7.20;6.50;;;12.10;99.90;;;;;;7376784;19;20844;-75
2022/05/05 05:47:23;;;;;;;8.83;6.60;;;12.10;99.90;;;;;;7381085;19;20357;-75
2022/05/05 05:49:49;;;;;;;7.43;6.72;;;12.10;99.90;;;;;;7377052;19;20320;-75
2022/05/05 05:52:14;;;;;;;7.17;6.47;;;12.00;99.90;;;;;;7382125;19;20325;-75
2022/05/05 05:54:40;;;;;;;7.55;6.30;;;12.00;99.90;;;;;;7378068;19;20344;-76
2022/05/05 05:57:05;;;;;;;8.00;7.20;;;11.90;99.90;;;;;;7378970;19;21399;-73
2022/05/05 05:59:31;;;;;;;7.22;6.50;;;11.90;99.90;;;;;;7380105;19;20347;-75
2022/05/05 06:04:41;;;;;;;7.50;6.80;;;12.00;99.90;;;;;;7376811;19;20349;-75
2022/05/05 06:07:06;;;;;;;7.10;6.40;;;12.00;99.90;;;;;;7380660;19;20309;-76
2022/05/05 06:09:32;;;;;;;7.70;6.90;;;12.10;99.90;;;;;;7384292;19;20415;-76
2022/05/05 06:11:58;;;;;;;8.70;7.80;;;12.00;99.90;;;;;;7379187;19;20328;-75
2022/05/05 06:14:23;;;;;;;9.18;7.50;;;12.00;99.90;;;;;;7376784;19;20336;-74
2022/05/05 06:16:49;;;;;;;7.53;6.83;;;12.00;99.90;;;;;;7376528;19;20920;-74
2022/05/05 06:19:14;;;;;;;7.83;7.13;;;12.10;99.90;;;;;;7379397;19;20344;-75
2022/05/05 06:21:40;;;;;;;8.88;7.88;;;12.10;99.90;;;;;;7378691;19;20658;-75
2022/05/05 06:24:06;;;;;;;8.00;7.20;;;12.10;99.90;;;;;;7379169;19;20387;-74
2022/05/05 06:26:32;;;;;;;8.67;7.87;;;12.20;99.90;;;;;;7376301;19;20360;-75
2022/05/05 06:28:58;;;;;;;8.07;7.28;;;12.30;99.90;;;;;;7376992;19;20310;-74
2022/05/05 06:31:23;;;;;;;7.70;7.00;;;12.30;99.90;;;;;;7374017;19;20353;-75
2022/05/05 06:33:49;;;;;;;7.90;7.10;;;12.40;99.90;;;;;;7375510;19;20313;-75
2022/05/05 06:36:18;;;;;;;7.82;7.05;;;12.50;99.90;;;;;;7372959;19;20337;-74
2022/05/05 06:38:43;;;;;;;8.52;7.35;;;12.70;99.90;;;;;;7376055;19;20325;-74
2022/05/05 06:41:09;;;;;;;7.95;6.47;;;12.90;99.90;;;;;;7374998;19;20646;-75
2022/05/05 06:43:35;;;;;;;7.73;7.03;;;13.10;99.90;;;;;;7377104;19;20335;-75
2022/05/05 06:46:01;;;;;;;8.40;7.28;;;13.20;99.90;;;;;;7372141;19;20316;-73
2022/05/05 06:48:27;;;;;;;7.88;7.15;;;13.30;99.90;;;;;;7379007;19;20337;-76
2022/05/05 06:50:52;;;;;;;8.00;7.20;;;13.50;99.90;;;;;;7375118;19;20344;-74
2022/05/05 06:53:18;;;;;;;8.32;7.43;;;13.60;99.90;;;;;;7373666;19;20321;-75
2022/05/05 06:55:43;;;;;;;9.50;6.83;;;13.70;99.90;;;;;;7374434;19;20415;-75
2022/05/05 06:58:09;;;;;;;7.83;7.03;;;13.80;99.90;;;;;;7378368;19;20991;-75
2022/05/05 07:03:19;;;;;;;8.43;6.38;;;14.20;99.90;;;;;;7269404;19;2004563;-75
2022/05/05 07:05:45;;;;;;;7.13;6.43;;;14.30;99.90;;;;;;7372562;19;20316;-76
2022/05/05 07:08:11;;;;;;;9.40;7.10;;;14.40;99.90;;;;;;7374068;19;20374;-76
2022/05/05 07:10:55;;;;;;;7.80;6.68;;;14.30;99.90;;;;;;7372278;19;20442;-74
2022/05/05 07:13:24;;;;;;;6.82;6.18;;;14.50;99.90;;;;;;7268543;19;2004360;-75
2022/05/05 07:15:50;;;;;;;6.72;6.13;;;14.80;99.90;;;;;;7372924;19;20865;-74
2022/05/05 07:18:16;;;;;;;7.38;6.68;;;15.00;99.90;;;;;;7374802;19;20374;-74
2022/05/05 07:20:42;;;;;;;7.20;6.47;;;15.00;99.90;;;;;;7371528;19;20333;-75
2022/05/05 07:23:12;;;;;;;6.90;6.27;;;15.00;99.90;;;;;;7372428;19;20697;-74
2022/05/05 07:25:39;;;;;;;7.10;6.30;;;15.20;99.90;;;;;;7370492;19;20357;-74
2022/05/05 07:28:05;;;;;;;6.60;5.97;;;15.50;99.90;;;;;;7372834;19;20301;-74
2022/05/05 07:30:30;;;;;;;7.00;6.07;;;15.70;99.90;;;;;;7374700;19;20312;-74
2022/05/05 07:32:56;;;;;;;6.83;5.87;;;15.70;99.90;;;;;;7372421;19;21305;-77
2022/05/05 07:35:21;;;;;;;6.50;5.88;;;15.90;99.90;;;;;;7371761;19;20333;-74
2022/05/05 07:37:47;;;;;;;8.30;6.10;;;16.00;99.90;;;;;;7373873;19;20967;-75
2022/05/05 07:40:12;;;;;;;6.72;6.10;;;16.20;99.90;;;;;;7372434;19;20341;-75
2022/05/05 07:42:41;;;;;;;6.10;5.50;;;16.30;99.90;;;;;;7376398;19;20386;-74
2022/05/05 07:45:07;;;;;;;6.20;5.60;;;16.40;99.90;;;;;;7372727;19;20336;-75
2022/05/05 07:47:33;;;;;;;6.93;6.22;;;16.60;99.90;;;;;;7373422;19;20340;-75
2022/05/05 07:49:59;;;;;;;6.55;5.95;;;16.90;99.90;;;;;;7375031;19;20331;-75
2022/05/05 07:52:25;;;;;;;6.57;5.97;;;17.00;99.90;;;;;;7372503;19;20455;-74
2022/05/05 07:54:51;;;;;;;8.53;6.27;;;17.20;99.90;;;;;;7369446;19;20423;-76
2022/05/05 07:57:20;;;;;;;6.35;5.75;;;16.80;99.90;;;;;;7373314;19;20313;-75
2022/05/05 07:59:45;;;;;;;7.13;6.05;;;16.90;99.90;;;;;;7374666;19;20349;-75
2022/05/05 08:02:14;;;;;;;6.23;5.63;;;16.80;99.90;;;;;;7370685;19;20339;-76
2022/05/05 08:04:40;;;;;;;6.43;5.80;;;16.80;99.90;;;;;;7369815;19;20354;-75
2022/05/05 08:07:06;;;;;;;6.65;5.53;;;16.50;99.90;;;;;;7374490;19;20301;-80
2022/05/05 08:09:32;;;;;;;6.03;5.43;;;16.80;99.90;;;;;;7373523;19;20328;-74
2022/05/05 08:11:59;;;;;;;7.67;5.73;;;16.70;99.90;;;;;;7371378;19;20320;-76
2022/05/05 08:14:26;;;;;;;7.20;6.30;;;16.70;99.90;;;;;;7370029;19;20336;-75
2022/05/05 08:16:52;;;;;;;6.45;5.82;;;16.70;99.90;;;;;;7367714;19;20343;-75
2022/05/05 08:19:17;;;;;;;8.00;5.68;;;16.70;99.90;;;;;;7373548;19;20308;-75
2022/05/05 08:21:43;;;;;;;6.23;5.63;;;16.80;99.90;;;;;;7373233;19;20356;-75
2022/05/05 08:29:37;;;;;;;5.73;5.23;;;16.30;99.90;;;;;;7378046;19;20396;-75
2022/05/05 08:32:03;;;;;;;6.25;5.65;;;16.20;99.90;;;;;;7376346;19;20828;-74
2022/05/05 08:34:28;;;;;;;6.60;5.73;;;16.10;99.90;;;;;;7380224;19;20356;-75
2022/05/05 08:36:54;;;;;;;8.38;7.45;;;16.10;99.90;;;;;;7375534;19;21139;-75
2022/05/05 08:39:19;;;;;;;6.00;5.50;;;16.00;99.90;;;;;;7380025;19;20309;-76
2022/05/05 08:41:46;;;;;;;7.00;6.30;;;16.10;99.90;;;;;;7380375;19;20338;-76
2022/05/05 08:44:12;;;;;;;6.68;6.07;;;16.00;99.90;;;;;;7378548;19;20337;-75
2022/05/05 08:46:37;;;;;;;6.93;6.27;;;16.00;99.90;;;;;;7376950;19;20308;-75
2022/05/05 08:49:04;;;;;;;7.45;6.75;;;15.80;99.90;;;;;;7379829;19;20323;-75
2022/05/05 08:51:34;;;;;;;7.93;6.78;;;15.50;99.90;;;;;;7377443;19;20384;-75
2022/05/05 08:54:00;;;;;;;9.05;6.18;;;15.40;99.90;;;;;;7377700;19;20313;-80
2022/05/05 08:56:25;;;;;;;9.13;6.78;;;15.40;99.90;;;;;;7375293;19;20352;-78
2022/05/05 08:58:51;;;;;;;7.60;6.13;;;15.40;99.90;;;;;;7378076;19;20320;-78
2022/05/05 09:01:16;;;;;;;7.43;6.73;;;15.60;99.90;;;;;;7379343;19;20388;-75
2022/05/05 09:03:43;;;;;;;7.72;6.47;;;15.60;99.90;;;;;;7377632;19;20911;-79
2022/05/05 09:06:08;;;;;;;8.05;7.22;;;15.60;99.90;;;;;;7375499;19;20340;-80
2022/05/05 09:08:34;;;;;;;8.17;7.20;;;15.70;99.90;;;;;;7380225;19;20357;-80
2022/05/05 09:11:05;;;;;;;7.53;6.65;;;15.50;99.90;;;;;;7378386;19;20309;-77
2022/05/05 09:13:35;;;;;;;8.05;7.25;;;15.40;99.90;;;;;;7356829;19;20345;-75
2022/05/05 09:16:02;;;;;;;7.78;7.07;;;15.50;99.90;;;;;;7376284;19;20308;-75
2022/05/05 09:18:29;;;;;;;6.88;6.18;;;15.50;99.90;;;;;;7379861;19;20325;-74
2022/05/05 09:20:56;;;;;;;7.75;6.88;;;15.70;99.90;;;;;;7388661;19;20815;-76
2022/05/05 09:24:34;;;;;;;7.53;6.75;;;16.00;99.90;;;;;;7392687;19;20369;-75
2022/05/05 09:26:27;;;;;;;7.72;6.93;;;16.10;99.90;;;;;;7285963;19;2004227;-75
2022/05/05 09:28:53;;;;;;;8.15;6.40;;;16.10;99.90;;;;;;7392742;19;21031;-74
2022/05/05 09:31:19;;;;;;;8.82;7.28;;;16.00;99.90;;;;;;7388379;19;20321;-75
2022/05/05 09:33:44;;;;;;;8.37;7.00;;;16.00;99.90;;;;;;7390838;19;21529;-75
2022/05/05 09:36:14;;;;;;;6.70;6.10;;;15.80;99.90;;;;;;7388639;19;20328;-75
2022/05/05 09:39:00;;;;;;;7.60;6.90;;;16.00;99.90;;;;;;7394105;19;20724;-74
2022/05/05 09:41:43;;;;;;;7.43;6.53;;;16.10;99.90;;;;;;7284668;19;2004527;-75
2022/05/05 09:44:16;;;;;;;8.15;7.32;;;16.50;99.90;;;;;;7386327;19;20351;-76
2022/05/05 09:46:43;;;;;;;8.20;7.05;;;16.60;99.90;;;;;;7389804;19;20361;-75
2022/05/05 09:49:16;;;;;;;8.43;7.43;;;16.80;99.90;;;;;;7393449;19;20354;-74
2022/05/05 09:51:45;;;;;;;7.93;7.13;;;16.70;99.90;;;;;;7289564;19;2004636;-75
2022/05/05 09:59:48;;;;;;;8.40;7.60;;;17.60;99.90;;;;;;7288372;19;2004566;-75
2022/05/05 10:04:00;;;;;;;8.75;7.28;;;17.00;99.90;;;;;;7391666;19;20313;-74
2022/05/05 10:05:03;;;;;;;8.50;7.30;;;17.20;99.90;;;;;;7283906;19;2005940;-75
2022/05/05 10:07:29;;;;;;;6.13;5.53;;;17.30;99.90;;;;;;7393034;19;20358;-75
2022/05/05 10:09:55;;;;;;;8.25;6.72;;;17.60;99.90;;;;;;7392122;19;20864;-75
2022/05/05 10:12:20;;;;;;;7.83;7.00;;;17.80;99.90;;;;;;7385700;19;20361;-76
2022/05/05 10:14:46;;;;;;;7.93;7.07;;;17.70;99.90;;;;;;7384392;19;21120;-75
2022/05/05 10:17:12;;;;;;;7.32;5.93;;;17.70;99.90;;;;;;7393837;19;20325;-76
2022/05/05 10:19:37;;;;;;;7.50;6.43;;;18.20;99.90;;;;;;7389106;19;20328;-76
2022/05/05 10:22:05;;;;;;;7.50;6.28;;;18.40;99.90;;;;;;7386901;19;20350;-76
2022/05/05 10:24:32;;;;;;;8.15;5.97;;;18.50;99.90;;;;;;7387299;19;20412;-75
2022/05/05 10:27:02;;;;;;;7.57;6.40;;;18.90;99.90;;;;;;7386447;19;20675;-76
2022/05/05 10:29:38;;;;;;;7.50;6.43;;;18.80;99.90;;;;;;7392061;19;20305;-75
2022/05/05 10:32:16;;;;;;;7.70;6.90;;;19.10;99.90;;;;;;7386415;19;20320;-76
2022/05/05 10:34:45;;;;;;;6.60;5.80;;;19.80;99.90;;;;;;7387350;19;20868;-76
2022/05/05 10:37:11;;;;;;;7.70;6.70;;;20.50;99.90;;;;;;7388580;19;20336;-76
2022/05/05 10:39:44;;;;;;;6.70;6.00;;;19.50;99.90;;;;;;7390060;19;20361;-76
2022/05/05 10:42:19;;;;;;;6.95;5.82;;;20.30;99.90;;;;;;7387281;19;20370;-77
2022/05/05 10:45:04;;;;;;;6.93;6.22;;;20.70;99.90;;;;;;7277048;19;2004788;-76
2022/05/05 10:47:52;;;;;;;8.30;5.60;;;20.50;99.90;;;;;;7274501;19;2004477;-76
2022/05/05 10:50:42;;;;;;;10.15;6.30;;;20.80;99.90;;;;;;7378962;19;20336;-75
2022/05/05 10:53:09;;;;;;;7.40;6.55;;;20.80;99.90;;;;;;7275317;19;2004415;-80
2022/05/05 10:55:34;;;;;;;6.75;6.05;;;20.20;99.90;;;;;;7377189;19;20366;-75
2022/05/05 10:58:00;;;;;;;10.05;6.47;;;20.50;99.90;;;;;;7380438;19;20325;-76
2022/05/05 11:00:44;;;;;;;5.70;5.10;;;21.10;99.90;;;;;;7380133;19;20312;-77
2022/05/05 11:03:10;;;;;;;5.75;5.15;;;21.80;99.90;;;;;;7275368;19;2004576;-76
2022/05/05 11:05:37;;;;;;;8.90;5.97;;;21.80;99.90;;;;;;7375295;19;20341;-76
2022/05/05 11:08:05;;;;;;;6.57;5.95;;;22.20;99.90;;;;;;7376525;19;20316;-77
2022/05/05 11:10:45;;;;;;;6.18;5.57;;;22.20;99.90;;;;;;7378804;19;20991;-80
2022/05/05 11:13:41;;;;;;;6.25;5.68;;;22.30;99.90;;;;;;7276620;19;2004441;-78
2022/05/05 11:22:08;;;;;;;6.30;5.70;;;22.90;99.90;;;;;;7277182;19;2004301;-82
2022/05/05 11:24:33;;;;;;;5.83;5.27;;;22.70;99.90;;;;;;7373987;19;20317;-76
2022/05/05 11:27:00;;;;;;;5.30;4.80;;;23.00;99.90;;;;;;7374658;19;20877;-77
2022/05/05 11:29:30;;;;;;;5.78;5.28;;;23.10;99.90;;;;;;7379822;19;20333;-79
2022/05/05 11:32:00;;;;;;;8.37;5.70;;;23.10;99.90;;;;;;7377567;19;20864;-77
2022/05/05 11:34:36;;;;;;;7.63;6.22;;;22.90;99.90;;;;;;7377427;19;20329;-77
2022/05/05 11:37:02;;;;;;;9.93;5.70;;;21.80;99.90;;;;;;7375176;19;20324;-76
2022/05/05 11:39:29;;;;;;;5.45;4.95;;;22.00;99.90;;;;;;7377457;19;20337;-80
2022/05/05 11:42:10;;;;;;;6.60;4.90;;;21.90;99.90;;;;;;7378591;19;20316;-78
2022/05/05 11:44:40;;;;;;;4.90;4.40;;;22.00;99.90;;;;;;7272626;19;2004388;-76
2022/05/05 11:47:17;;;;;;;4.55;4.13;;;22.30;99.90;;;;;;7376053;19;20393;-79
2022/05/05 11:49:44;;;;;;;5.90;4.18;;;22.80;99.90;;;;;;7377108;19;20375;-78
2022/05/05 11:52:14;;;;;;;4.80;4.30;;;23.50;99.90;;;;;;7378391;19;20348;-81
2022/05/05 11:54:39;;;;;;;4.68;4.25;;;24.10;99.90;;;;;;7373660;19;21004;-77
2022/05/05 11:57:05;;;;;;;4.57;3.78;;;24.70;99.90;;;;;;7374705;19;20670;-79
2022/05/05 12:02:20;;;;;;;4.90;3.90;;;25.50;98.80;;;;;;7385476;19;20320;-78
2022/05/05 12:04:49;;;;;;;3.90;3.40;;;25.80;98.20;;;;;;7381869;19;20690;-79
2022/05/05 12:07:19;;;;;;;3.80;3.40;;;25.60;96.90;;;;;;7384552;19;20367;-76
2022/05/05 12:09:46;;;;;;;4.30;3.55;;;25.00;96.30;;;;;;7281796;19;2004523;-80
2022/05/05 12:12:18;;;;;;;5.00;3.65;;;24.90;96.00;;;;;;7384266;19;20317;-79
2022/05/05 12:14:51;;;;;;;3.85;3.50;;;24.50;95.10;;;;;;7380866;19;20327;-79
2022/05/05 12:17:21;;;;;;;4.37;3.87;;;24.40;94.50;;;;;;7382518;19;20356;-78
2022/05/05 12:19:52;;;;;;;4.83;3.70;;;22.90;95.30;;;;;;7386872;19;20344;-80
2022/05/05 12:22:38;;;;;;;4.87;4.27;;;23.30;98.20;;;;;;7380860;19;20344;-80
2022/05/05 12:25:17;;;;;;;3.90;3.60;;;23.60;96.50;;;;;;7274480;19;2004334;-78
2022/05/05 12:27:44;;;;;;;4.65;3.63;;;24.00;96.10;;;;;;7280736;19;2004543;-77
2022/05/05 12:30:10;;;;;;;4.18;3.78;;;24.80;97.20;;;;;;7383457;19;20325;-80
2022/05/05 12:32:49;;;;;;;3.75;3.45;;;24.50;94.30;;;;;;7382194;19;20361;-78
2022/05/05 12:35:16;;;;;;;4.13;3.53;;;25.10;96.30;;;;;;7380455;19;20336;-78
2022/05/05 12:37:41;;;;;;;4.00;3.60;;;24.80;94.10;;;;;;7383796;19;20333;-78
2022/05/05 12:40:07;;;;;;;3.20;2.90;;;25.10;92.50;;;;;;7382484;19;20320;-82
2022/05/05 12:42:43;;;;;;;3.53;3.22;;;25.50;92.60;;;;;;7380781;19;20344;-78
2022/05/05 12:45:16;;;;;;;3.13;2.83;;;26.10;91.30;;;;;;7380870;19;20349;-78
2022/05/05 12:47:43;;;;;;;6.40;3.40;;;26.50;93.50;;;;;;7383381;19;20332;-79
2022/05/05 12:50:31;;;;;;;3.60;3.30;;;25.50;86.80;;;;;;7384716;19;20349;-78
2022/05/05 13:01:26;;;;;;;3.35;3.08;;;25.50;89.30;;;;;;7274216;19;2006088;-77
2022/05/05 13:03:55;;;;;;;3.75;3.13;;;25.60;90.20;;;;;;7381163;19;20448;-78
2022/05/05 13:06:24;;;;;;;4.63;3.40;;;26.30;88.70;;;;;;7380955;19;20354;-77
2022/05/05 13:08:53;;;;;;;3.45;3.15;;;26.10;87.50;;;;;;7382665;19;20444;-77
2022/05/05 13:11:19;;;;;;;3.50;3.20;;;26.20;86.00;;;;;;7379817;19;20320;-77
2022/05/05 13:13:45;;;;;;;4.15;3.53;;;26.00;86.90;;;;;;7379789;19;20356;-78
2022/05/05 13:16:11;;;;;;;3.53;3.20;;;25.60;81.60;;;;;;7380161;19;20325;-77
2022/05/05 13:18:38;;;;;;;3.30;3.00;;;25.90;82.40;;;;;;7382625;19;20345;-80
2022/05/05 13:21:03;;;;;;;3.90;2.88;;;26.20;83.90;;;;;;7380261;19;20349;-77
2022/05/05 13:23:29;;;;;;;3.53;3.00;;;27.00;88.70;;;;;;7381301;19;20325;-79
2022/05/05 13:25:55;;;;;;;3.30;3.00;;;27.00;81.20;;;;;;7378073;19;20956;-78
2022/05/05 13:28:20;;;;;;;3.10;2.78;;;26.70;78.80;;;;;;7382857;19;20356;-81
2022/05/05 13:30:46;;;;;;;3.25;2.85;;;25.90;82.40;;;;;;7381132;19;20382;-78